Time;durP1;ratioP1;P1;durP2;ratioP2;P2;SDS_P1;SDS_P2;PMS_P1;PMS_P2;Temp;Humidity;BMP_temperature;BMP_pressure;BME280_temperature;BME280_humidity;BME280_pressure;Samples;Min_cycle;Max_cycle;Signal;HPM_P1;HPM_P2
2022/09/01 00:00:12;;;;;;;6.03;1.55;;;;;;;17.22;50.63;101870.06;5284895;28;20466;-71
2022/09/01 00:02:43;;;;;;;5.90;1.67;;;;;;;16.99;51.08;101867.97;5271305;28;20040;-71
2022/09/01 00:05:15;;;;;;;5.20;2.00;;;;;;;17.19;51.30;101864.88;5263954;28;20033;-71
2022/09/01 00:07:47;;;;;;;3.73;1.60;;;;;;;17.10;50.92;101863.31;5263883;28;20056;-71
2022/09/01 00:10:19;;;;;;;;;;;;;;;17.27;50.10;101862.91;5264269;28;20025;-71
2022/09/01 00:12:50;;;;;;;4.05;1.67;;;;;;;16.85;51.98;101855.09;5263592;28;19978;-71
2022/09/01 00:15:21;;;;;;;7.10;1.50;;;;;;;16.82;52.45;101859.53;5284020;28;20032;-71
2022/09/01 00:17:53;;;;;;;3.53;1.67;;;;;;;16.86;52.50;101858.63;5284598;28;20115;-71
2022/09/01 00:20:24;;;;;;;3.97;1.67;;;;;;;16.67;52.61;101853.69;5284453;28;20031;-72
2022/09/01 00:22:56;;;;;;;6.20;2.17;;;;;;;16.80;52.97;101853.44;5266081;28;20064;-72
2022/09/01 00:25:28;;;;;;;14.90;1.90;;;;;;;16.77;53.45;101857.00;5263645;28;20029;-71
2022/09/01 00:28:03;;;;;;;5.72;1.58;;;;;;;16.82;53.77;101865.66;5263549;28;20036;-71
2022/09/01 00:30:35;;;;;;;5.60;1.80;;;;;;;16.82;53.42;101856.91;5263653;28;20119;-72
2022/09/01 00:33:07;;;;;;;3.20;1.58;;;;;;;16.63;54.02;101859.06;5263763;28;20363;-72
2022/09/01 00:35:38;;;;;;;9.97;2.53;;;;;;;16.55;54.13;101857.47;5261656;28;21928;-73
2022/09/01 00:38:09;;;;;;;2.40;1.43;;;;;;;16.44;54.66;101858.56;5266323;28;20448;-72
2022/09/01 00:40:41;;;;;;;4.93;1.73;;;;;;;16.76;55.05;101858.78;5262411;28;20044;-72
2022/09/01 00:43:19;;;;;;;3.83;1.60;;;;;;;16.67;55.33;101858.97;5267327;28;20020;-71
2022/09/01 00:45:51;;;;;;;5.53;1.70;;;;;;;16.49;55.88;101856.72;5283650;28;20032;-71
2022/09/01 00:48:23;;;;;;;4.03;1.80;;;;;;;16.62;56.34;101860.84;5282588;28;20033;-71
2022/09/01 00:50:55;;;;;;;3.50;1.45;;;;;;;16.42;56.56;101858.59;5270653;28;20021;-71
2022/09/01 00:53:27;;;;;;;11.47;2.10;;;;;;;16.32;56.58;101855.28;5262879;28;20071;-71
2022/09/01 00:55:59;;;;;;;2.70;1.70;;;;;;;16.22;56.92;101853.75;5262117;28;20131;-71
2022/09/01 00:58:31;;;;;;;1.70;1.45;;;;;;;16.39;57.09;101858.69;5244937;28;20032;-71
2022/09/01 01:01:05;;;;;;;6.95;1.92;;;;;;;16.14;57.49;101858.28;5263228;28;20033;-71
2022/09/01 01:03:44;;;;;;;6.68;2.20;;;;;;;16.06;57.74;101858.41;5283391;28;20043;-71
2022/09/01 01:06:18;;;;;;;6.68;2.03;;;;;;;16.45;58.12;101858.53;5252221;28;20370;-71
2022/09/01 01:08:56;;;;;;;4.43;1.80;;;;;;;16.08;58.15;101859.25;5244976;28;20421;-72
2022/09/01 01:11:31;;;;;;;8.60;2.13;;;;;;;16.20;58.53;101851.13;5262115;28;20028;-71
2022/09/01 01:14:14;;;;;;;3.30;1.95;;;;;;;16.10;58.80;101856.59;5263613;28;20094;-71
2022/09/01 01:16:49;;;;;;;4.38;2.28;;;;;;;16.25;58.51;101845.78;5262178;28;20024;-72
2022/09/01 01:25:35;;;;;;;4.45;2.13;;;;;;;15.98;59.11;101847.19;5261858;28;20036;-71
2022/09/01 01:28:25;;;;;;;5.53;2.00;;;;;;;16.09;59.02;101853.09;5261415;28;20036;-71
2022/09/01 01:31:00;;;;;;;5.53;2.08;;;;;;;16.12;60.02;101852.19;5282861;28;20060;-72
2022/09/01 01:33:39;;;;;;;3.67;2.28;;;;;;;16.14;60.02;101851.25;5283024;28;20067;-71
2022/09/01 01:36:15;;;;;;;4.13;1.90;;;;;;;16.04;60.22;101847.06;5282867;28;20033;-72
2022/09/01 01:38:48;;;;;;;5.18;1.98;;;;;;;16.02;60.42;101857.63;5281377;28;20040;-72
2022/09/01 01:41:20;;;;;;;8.38;2.08;;;;;;;15.95;60.69;101847.22;5283003;28;20025;-71
2022/09/01 01:43:52;;;;;;;3.17;1.70;;;;;;;15.98;60.85;101855.06;5280738;28;20389;-71
2022/09/01 01:46:24;;;;;;;4.17;1.97;;;;;;;15.94;60.81;101849.00;5282461;28;20033;-71
2022/09/01 01:48:56;;;;;;;;;;;;;;;16.01;58.63;101858.50;5283537;28;20466;-71
2022/09/01 01:51:31;;;;;;;;;;;;;;;15.98;58.08;101860.31;5281212;28;19913;-72
2022/09/01 01:54:04;;;;;;;;;;;;;;;15.96;57.91;101859.50;5283215;28;19916;-72
2022/09/01 01:56:38;;;;;;;;;;;;;;;15.95;57.74;101855.13;5283098;28;19916;-72
2022/09/01 01:59:15;;;;;;;;;;;;;;;15.93;57.75;101860.41;5280718;28;20010;-72
2022/09/01 02:01:48;;;;;;;;;;;;;;;15.90;57.54;101857.81;5283046;28;19958;-71
2022/09/01 02:04:19;;;;;;;;;;;;;;;15.86;57.67;101859.66;5281375;28;19927;-71
2022/09/01 02:06:50;;;;;;;;;;;;;;;15.81;57.63;101855.34;5283170;28;20288;-71
2022/09/01 02:09:22;;;;;;;;;;;;;;;15.77;57.84;101853.69;5282936;28;19974;-71
2022/09/01 02:11:56;;;;;;;;;;;;;;;15.74;57.91;101858.97;5283095;28;20302;-71
2022/09/01 02:14:27;;;;;;;;;;;;;;;15.72;57.73;101861.63;5282463;28;19920;-72
2022/09/01 02:17:00;;;;;;;;;;;;;;;15.71;57.73;101856.38;5272929;28;19920;-71
2022/09/01 02:19:35;;;;;;;;;;;;;;;15.64;57.86;101853.84;5261938;28;19916;-71
2022/09/01 02:22:09;;;;;;;;;;;;;;;15.61;57.91;101867.03;5261917;28;19999;-71
2022/09/01 02:24:46;;;;;;;;;;;;;;;15.57;58.05;101862.75;5262053;28;19916;-71
2022/09/01 02:27:22;;;;;;;;;;;;;;;15.55;57.91;101856.63;5261914;28;19917;-71
2022/09/01 02:29:54;;;;;;;;;;;;;;;15.53;58.17;101858.41;5275698;28;20294;-72
2022/09/01 02:32:25;;;;;;;;;;;;;;;15.53;58.05;101853.16;5264970;28;19916;-72
2022/09/01 02:35:00;;;;;;;;;;;;;;;15.54;58.10;101862.78;5282900;28;19924;-71
2022/09/01 02:37:31;;;;;;;;;;;;;;;15.52;58.03;101858.44;5286971;28;20007;-72
2022/09/01 02:40:02;;;;;;;;;;;;;;;15.52;58.10;101855.81;5286879;28;20063;-72
2022/09/01 02:42:34;;;;;;;;;;;;;;;15.50;58.07;101858.47;5284474;28;19923;-71
2022/09/01 02:45:10;;;;;;;;;;;;;;;15.50;58.19;101856.72;5286081;28;20254;-71
2022/09/01 02:47:45;;;;;;;;;;;;;;;15.44;58.25;101856.81;5286718;28;19916;-71
2022/09/01 02:50:17;;;;;;;;;;;;;;;15.36;58.36;101855.19;5286808;28;19912;-70
2022/09/01 02:52:51;;;;;;;;;;;;;;;15.30;58.44;101850.91;5286519;28;19924;-71
2022/09/01 02:55:22;;;;;;;;;;;;;;;15.24;58.57;101846.59;5284422;28;20361;-71
2022/09/01 02:57:57;;;;;;;;;;;;;;;15.22;58.65;101839.66;5287021;28;19967;-71
2022/09/01 03:00:30;;;;;;;;;;;;;;;15.18;58.82;101844.06;5286196;28;19924;-72
2022/09/01 03:03:01;;;;;;;;;;;;;;;15.14;58.84;101845.03;5286429;28;19916;-72
2022/09/01 03:05:34;;;;;;;;;;;;;;;15.11;58.94;101835.41;5284865;28;19970;-72
2022/09/01 03:08:09;;;;;;;;;;;;;;;15.07;58.90;101830.22;5285597;28;20287;-72
2022/09/01 03:10:42;;;;;;;;;;;;;;;15.06;59.13;101836.41;5286340;28;19958;-72
2022/09/01 03:13:15;;;;;;;;;;;;;;;15.04;59.06;101838.19;5286397;28;19912;-72
2022/09/01 03:15:46;;;;;;;;;;;;;;;15.00;59.21;101836.47;5285823;28;19919;-72
2022/09/01 03:18:17;;;;;;;;;;;;;;;15.00;59.17;101836.47;5280554;28;20007;-72
2022/09/01 03:20:51;;;;;;;;;;;;;;;14.95;59.32;101841.78;5265396;28;19917;-72
2022/09/01 03:23:24;;;;;;;;;;;;;;;14.89;59.50;101840.13;5265314;28;20327;-71
2022/09/01 03:25:55;;;;;;;;;;;;;;;14.84;59.44;101836.69;5265278;28;19924;-71
2022/09/01 03:28:27;;;;;;;;;;;;;;;14.81;59.63;101839.38;5247330;28;19917;-71
2022/09/01 03:30:58;;;;;;;;;;;;;;;14.77;59.71;101846.41;5247503;28;19969;-72
2022/09/01 03:33:31;;;;;;;;;;;;;;;14.73;59.84;101838.59;5265085;28;19924;-71
2022/09/01 03:36:03;;;;;;;;;;;;;;;14.72;59.89;101837.72;5264898;28;19957;-71
2022/09/01 03:38:34;;;;;;;;;;;;;;;14.72;60.01;101842.13;5265064;28;19934;-72
2022/09/01 03:41:06;;;;;;;;;;;;;;;14.68;60.17;101838.66;5265763;28;19917;-71
2022/09/01 03:43:37;;;;;;;;;;;;;;;14.66;59.99;101847.44;5266306;28;20021;-72
2022/09/01 03:46:11;;;;;;;;;;;;;;;14.63;59.97;101836.97;5263797;28;20011;-71
2022/09/01 03:48:42;;;;;;;;;;;;;;;14.58;60.32;101840.47;5264746;28;19923;-72
2022/09/01 03:51:13;;;;;;;;;;;;;;;14.56;60.36;101839.63;5264908;28;19916;-73
2022/09/01 03:53:46;;;;;;;;;;;;;;;14.53;60.39;101838.81;5265629;28;19921;-72
2022/09/01 03:56:17;;;;;;;;;;;;;;;14.48;60.29;101836.25;5264664;28;19935;-71
2022/09/01 03:58:48;;;;;;;;;;;;;;;14.45;60.54;101838.03;5264256;28;19967;-71
2022/09/01 04:01:20;;;;;;;;;;;;;;;14.38;60.64;101832.88;5264521;28;19924;-72
2022/09/01 04:03:52;;;;;;;;;;;;;;;14.36;60.77;101833.75;5264492;28;19920;-72
2022/09/01 04:06:24;;;;;;;;;;;;;;;14.35;60.94;101832.91;5247822;28;19978;-72
2022/09/01 04:09:01;;;;;;;;;;;;;;;14.35;60.95;101830.28;5264427;28;20246;-72
2022/09/01 04:11:32;;;;;;;;;;;;;;;14.36;60.99;101833.75;5230677;28;20350;-71
2022/09/01 04:14:04;;;;;;;;;;;;;;;14.38;61.12;101824.16;5264281;28;19957;-72
2022/09/01 04:19:25;;;;;;;;;;;;;;;14.36;61.33;101839.91;5265463;28;19921;-72
2022/09/01 04:21:59;;;;;;;;;;;;;;;14.38;61.20;101834.63;5264329;28;19913;-72
2022/09/01 04:24:31;;;;;;;;;;;;;;;14.38;61.36;101837.25;5264030;28;19919;-72
2022/09/01 04:27:02;;;;;;;;;;;;;;;14.40;61.36;101840.72;5263758;28;20007;-72
2022/09/01 04:29:33;;;;;;;;;;;;;;;14.40;61.35;101833.72;5263991;28;20449;-71
2022/09/01 04:32:06;;;;;;;;;;;;;;;14.43;61.47;101834.59;5265331;28;19943;-70
2022/09/01 04:34:39;;;;;;;;;;;;;;;14.41;61.43;101842.47;5263842;28;19913;-71
2022/09/01 04:37:11;;;;;;;;;;;;;;;14.39;61.63;101839.88;5263893;28;19942;-71
2022/09/01 04:39:51;;;;;;;;;;;;;;;14.41;61.66;101839.84;5263453;28;19917;-71
2022/09/01 04:42:23;;;;;;;;;;;;;;;14.42;61.65;101838.94;5263864;28;19917;-71
2022/09/01 04:44:56;;;;;;;;;;;;;;;14.41;61.77;101843.31;5264457;28;20622;-71
2022/09/01 04:47:28;;;;;;;;;;;;;;;14.39;61.77;101844.22;5263685;28;20365;-71
2022/09/01 04:50:00;;;;;;;;;;;;;;;14.34;61.77;101840.78;5263380;28;19919;-70
2022/09/01 04:52:32;;;;;;;;;;;;;;;14.28;61.98;101840.84;5262860;28;19920;-70
2022/09/01 04:55:03;;;;;;;;;;;;;;;14.25;62.03;101840.88;5263880;28;19920;-71
2022/09/01 04:57:35;;;;;;;;;;;;;;;14.21;62.02;101838.28;5244733;28;20019;-70
2022/09/01 05:00:21;;;;;;;;;;;;;;;14.18;62.32;101837.47;5262857;28;19960;-71
2022/09/01 05:02:54;;;;;;;;;;;;;;;14.15;62.16;101841.00;5263185;28;19920;-71
2022/09/01 05:05:26;;;;;;;;;;;;;;;14.12;62.44;101845.41;5264158;28;19962;-71
2022/09/01 05:07:57;;;;;;;;;;;;;;;14.11;62.22;101838.44;5263306;28;19917;-71
2022/09/01 05:10:28;;;;;;;;;;;;;;;14.11;62.31;101843.69;5263274;28;20424;-71
2022/09/01 05:13:00;;;;;;;;;;;;;;;14.10;62.39;101844.56;5262967;28;20062;-70
2022/09/01 05:15:31;;;;;;;;;;;;;;;14.09;62.46;101846.31;5262548;28;19916;-71
2022/09/01 05:18:08;;;;;;;;;;;;;;;14.08;62.38;101841.94;5282586;28;20050;-72
2022/09/01 05:20:40;;;;;;;;;;;;;;;14.05;62.35;101841.97;5283712;28;19912;-71
2022/09/01 05:23:12;;;;;;;;;;;;;;;14.04;62.38;101843.72;5283616;28;20392;-71
2022/09/01 05:25:43;;;;;;;;;;;;;;;14.06;62.28;101848.97;5283608;28;19916;-72
2022/09/01 05:28:16;;;;;;;;;;;;;;;14.09;62.38;101851.56;5279229;28;20026;-72
2022/09/01 05:30:47;;;;;;;;;;;;;;;14.12;62.47;101854.16;5262607;28;19928;-72
2022/09/01 05:33:20;;;;;;;;;;;;;;;14.14;62.34;101851.50;5262607;28;19917;-72
2022/09/01 05:35:55;;;;;;;;;;;;;;;14.16;62.22;101842.72;5262369;28;19912;-71
2022/09/01 05:38:30;;;;;;;;;;;;;;;14.18;62.39;101845.34;5262598;28;20341;-72
2022/09/01 05:41:03;;;;;;;;;;;;;;;14.21;62.41;101845.31;5266727;28;20479;-71
2022/09/01 05:43:34;;;;;;;;;;;;;;;14.25;62.26;101859.25;5265211;28;19934;-72
2022/09/01 05:46:07;;;;;;;;;;;;;;;14.31;62.44;101848.69;5282593;28;20252;-71
2022/09/01 05:48:38;;;;;;;;;;;;;;;14.30;62.44;101853.06;5283145;28;19916;-71
2022/09/01 05:51:13;;;;;;;;;;;;;;;14.32;62.41;101855.69;5283106;28;19913;-71
2022/09/01 05:53:46;;;;;;;;;;;;;;;14.33;62.96;101849.53;5280462;28;20396;-72
2022/09/01 05:56:18;;;;;;;;;;;;;;;14.31;63.39;101853.94;5283164;28;19920;-71
2022/09/01 05:58:49;;;;;;;;;;;;;;;14.26;63.22;101853.97;5283036;28;20244;-71
2022/09/01 06:01:23;;;;;;;;;;;;;;;14.26;63.35;101855.75;5283010;28;19916;-72
2022/09/01 06:03:55;;;;;;;;;;;;;;;14.26;63.62;101858.38;5282874;28;19923;-71
2022/09/01 06:06:27;;;;;;;;;;;;;;;14.25;63.04;101856.63;5262489;28;19916;-72
2022/09/01 06:08:59;;;;;;;;;;;;;;;14.27;62.88;101855.72;5278837;28;19920;-72
2022/09/01 06:11:31;;;;;;;;;;;;;;;14.27;63.37;101863.59;5261869;28;19924;-72
2022/09/01 06:14:04;;;;;;;;;;;;;;;14.31;62.93;101864.44;5261432;28;19958;-70
2022/09/01 06:16:36;;;;;;;;;;;;;;;14.39;62.64;101862.59;5261160;28;19912;-71
2022/09/01 06:19:07;;;;;;;;;;;;;;;14.48;62.92;101867.72;5261126;28;19916;-71
2022/09/01 06:21:38;;;;;;;;;;;;;;;14.53;62.41;101868.53;5261508;28;19917;-71
2022/09/01 06:24:10;;;;;;;;;;;;;;;14.56;62.85;101860.63;5261247;28;19954;-71
2022/09/01 06:26:42;;;;;;;;;;;;;;;14.58;62.43;101865.88;5261600;28;20358;-71
2022/09/01 06:29:16;;;;;;;;;;;;;;;14.59;63.56;101867.63;5261491;28;19913;-72
2022/09/01 06:31:51;;;;;;;;;;;;;;;14.62;63.01;101866.72;5266015;28;20391;-71
2022/09/01 06:34:25;;;;;;;;;;;;;;;14.66;62.72;101863.19;5261500;28;20378;-71
2022/09/01 06:36:56;;;;;;;;;;;;;;;14.74;62.84;101862.19;5261617;28;19930;-72
2022/09/01 06:39:27;;;;;;;;;;;;;;;14.82;62.76;101869.97;5261521;28;20136;-71
2022/09/01 06:41:59;;;;;;;;;;;;;;;14.91;62.53;101867.22;5261485;28;19917;-72
2022/09/01 06:44:31;;;;;;;;;;;;;;;15.01;62.51;101870.59;5261608;28;19927;-72
2022/09/01 06:47:03;;;;;;;;;;;;;;;15.11;62.68;101872.19;5277426;28;19920;-71
2022/09/01 06:49:35;;;;;;;;;;;;;;;15.20;62.62;101872.94;5282305;28;19920;-71
2022/09/01 06:52:06;;;;;;;;;;;;;;;15.29;62.04;101870.19;5282036;28;20318;-71
2022/09/01 06:54:40;;;;;;;;;;;;;;;15.38;62.69;101879.69;5280080;28;20253;-71
2022/09/01 06:57:11;;;;;;;;;;;;;;;15.46;61.75;101869.94;5282364;28;19916;-71
2022/09/01 06:59:42;;;;;;;;;;;;;;;15.52;61.89;101876.84;5282359;28;19920;-71
2022/09/01 07:02:15;;;;;;;;;;;;;;;15.59;61.85;101881.13;5282306;28;19969;-71
2022/09/01 07:04:47;;;;;;;;;;;;;;;15.66;62.24;101882.75;5280316;28;20024;-72
2022/09/01 07:07:19;;;;;;;;;;;;;;;15.75;61.58;101874.72;5282131;28;19920;-71
2022/09/01 07:09:50;;;;;;;;;;;;;;;15.86;61.62;101878.06;5282177;28;19916;-72
2022/09/01 07:12:22;;;;;;;;;;;;;;;15.94;61.80;101877.94;5282268;28;19943;-71
2022/09/01 07:14:55;;;;;;;;;;;;;;;16.01;61.76;101889.19;5281906;28;19913;-72
2022/09/01 07:17:29;;;;;;;;;;;;;;;16.11;61.65;101884.63;5249347;28;19916;-71
2022/09/01 07:20:00;;;;;;;;;;;;;;;16.21;61.46;101884.44;5261394;28;19917;-71
2022/09/01 07:22:31;;;;;;;;;;;;;;;16.33;61.70;101885.97;5263987;28;19923;-71
2022/09/01 07:25:03;;;;;;;;;;;;;;;16.47;60.49;101882.19;5264923;28;19920;-72
2022/09/01 07:27:34;;;;;;;;;;;;;;;16.60;60.52;101888.97;5264768;28;19912;-71
2022/09/01 07:30:08;;;;;;;;;;;;;;;16.72;60.68;101886.06;5282588;28;19921;-72
2022/09/01 07:32:42;;;;;;;;;;;;;;;16.86;60.52;101882.31;5285787;28;19962;-72
2022/09/01 07:35:15;;;;;;;;;;;;;;;16.98;60.26;101884.66;5285739;28;19912;-72
2022/09/01 07:37:47;;;;;;;;;;;;;;;17.05;59.17;101883.66;5285614;28;19920;-71
2022/09/01 07:40:21;;;;;;;;;;;;;;;17.14;59.47;101887.81;5283112;28;19985;-72
2022/09/01 07:42:53;;;;;;;;;;;;;;;17.27;59.58;101889.28;5264813;28;19913;-72
2022/09/01 07:45:24;;;;;;;;;;;;;;;17.40;58.80;101892.47;5264232;28;19912;-72
2022/09/01 07:47:58;;;;;;;;;;;;;;;17.51;58.80;101894.88;5264506;28;20446;-72
2022/09/01 07:50:30;;;;;;;;;;;;;;;17.62;58.70;101892.00;5264561;28;20320;-72
2022/09/01 07:53:01;;;;;;;;;;;;;;;17.75;58.11;101889.91;5264689;28;19916;-73
2022/09/01 07:55:33;;;;;;;;;;;;;;;17.85;58.20;101900.19;5264420;28;20011;-71
2022/09/01 07:58:04;;;;;;;;;;;;;;;17.97;58.10;101891.13;5264647;28;20377;-71
2022/09/01 08:00:37;;;;;;;;;;;;;;;18.06;57.48;101889.16;5264323;28;19924;-72
2022/09/01 08:03:08;;;;;;;;;;;;;;;18.16;57.65;101890.63;5246649;28;19916;-72
2022/09/01 08:05:39;;;;;;;;;;;;;;;18.27;57.11;101885.06;5284810;28;19924;-71
2022/09/01 08:08:11;;;;;;;;;;;;;;;18.39;57.77;101882.94;5285125;28;19913;-71
2022/09/01 08:10:43;;;;;;;;;;;;;;;18.57;57.42;101891.25;5284650;28;20019;-71
2022/09/01 08:13:15;;;;;;;;;;;;;;;18.70;57.27;101884.69;5285116;28;19999;-70
2022/09/01 08:15:46;;;;;;;;;;;;;;;18.81;56.27;101881.75;5263544;28;19927;-71
2022/09/01 08:18:17;;;;;;;;;;;;;;;18.92;57.02;101884.13;5263959;28;20342;-71
2022/09/01 08:20:48;;;;;;;;;;;;;;;19.05;56.75;101888.09;5263901;28;19952;-71
2022/09/01 08:23:25;;;;;;;;;;;;;;;19.18;56.51;101893.03;5263638;28;19913;-71
2022/09/01 08:25:56;;;;;;;;;;;;;;;19.30;56.43;101889.97;5263986;28;19912;-71
2022/09/01 08:28:27;;;;;;;;;;;;;;;19.43;56.65;101890.44;5263785;28;20043;-71
2022/09/01 08:30:59;;;;;;;;;;;;;;;19.53;56.13;101883.97;5263817;28;19963;-71
2022/09/01 08:33:34;;;;;;;;;;;;;;;19.59;55.38;101886.38;5262656;28;19912;-70
2022/09/01 08:36:09;;;;;;;;;;;;;;;19.65;54.90;101887.97;5263277;28;19917;-71
2022/09/01 08:38:41;;;;;;;;;;;;;;;19.74;55.37;101881.50;5263444;28;19978;-71
2022/09/01 08:41:22;;;;;;;;;;;;;;;19.83;55.40;101887.38;5263512;28;20377;-71
2022/09/01 08:44:02;;;;;;;;;;;;;;;19.94;54.42;101888.81;5263593;28;19912;-70
2022/09/01 08:46:36;;;;;;;;;;;;;;;20.01;54.97;101892.94;5263071;28;19913;-70
2022/09/01 08:49:17;;;;;;;;;;;;;;;20.09;54.31;101885.59;5263168;28;19955;-71
2022/09/01 08:51:48;;;;;;;;;;;;;;;20.20;54.24;101890.53;5263310;28;19944;-71
2022/09/01 08:54:37;;;;;;;;;;;;;;;20.31;54.23;101891.00;5245401;28;19963;-70
2022/09/01 08:57:13;;;;;;;;;;;;;;;20.46;54.10;101886.06;5263014;28;19917;-70
2022/09/01 08:59:45;;;;;;;;;;;;;;;20.55;54.06;101881.28;5262904;28;20008;-71
2022/09/01 09:02:41;;;;;;;;;;;;;;;20.65;54.02;101881.84;5263012;28;20011;-71
2022/09/01 09:05:12;;;;;;;;;;;;;;;20.76;53.75;101882.28;5264001;28;19917;-71
2022/09/01 09:08:02;;;;;;;;;;;;;;;20.92;53.27;101879.06;5262892;28;19919;-71
2022/09/01 09:10:35;;;;;;;;;;;;;;;21.10;52.21;101880.13;5262945;28;19912;-71
2022/09/01 09:13:07;;;;;;;;;;;;;;;21.23;51.69;101872.56;5262602;28;19913;-71
2022/09/01 09:15:43;;;;;;;;;;;;;;;21.39;52.35;101884.25;5244663;28;19923;-71
2022/09/01 09:18:25;;;;;;;;;;;;;;;21.54;50.89;101882.81;5262849;28;20003;-71
2022/09/01 09:21:03;;;;;;;;;;;;;;;21.65;50.32;101877.03;5262887;28;19916;-72
2022/09/01 09:23:38;;;;;;;;;;;;;;;21.80;51.31;101871.09;5262968;28;19926;-72
2022/09/01 09:26:09;;;;;;;;;;;;;;;21.95;51.06;101872.22;5263798;28;19921;-71
2022/09/01 09:28:40;;;;;;;;;;;;;;;22.11;51.27;101872.41;5262419;28;19939;-71
2022/09/01 09:31:29;;;;;;;;;;;;;;;22.28;51.35;101876.09;5262536;28;20255;-72
2022/09/01 09:34:00;;;;;;;;;;;;;;;22.47;49.52;101857.59;5262378;28;19924;-72
2022/09/01 09:36:33;;;;;;;;;;;;;;;22.59;50.41;101857.03;5262422;28;19916;-72
2022/09/01 09:39:10;;;;;;;;;;;;;;;22.80;50.78;101863.13;5262692;28;19986;-72
2022/09/01 09:41:42;;;;;;;;;;;;;;;23.02;48.16;101854.13;5262489;28;20265;-71
2022/09/01 09:44:16;;;;;;;;;;;;;;;23.14;48.47;101848.25;5262216;28;20410;-70
2022/09/01 09:46:47;;;;;;;;;;;;;;;23.22;48.63;101847.88;5261603;28;19917;-71
2022/09/01 09:49:29;;;;;;;;;;;;;;;23.40;47.18;101851.41;5262876;28;19912;-72
2022/09/01 09:52:00;;;;;;;;;;;;;;;23.71;48.78;101844.53;5262292;28;19943;-71
2022/09/01 09:54:32;;;;;;;;;;;;;;;24.04;43.98;101844.63;5262229;28;20008;-70
2022/09/01 09:57:07;;;;;;;;;;;;;;;24.24;46.03;101832.88;5259858;28;19966;-71
2022/09/01 09:59:43;;;;;;;;;;;;;;;24.45;45.26;101836.19;5282957;28;20015;-71
2022/09/01 10:02:24;;;;;;;;;;;;;;;24.50;42.90;101843.94;5282760;28;19920;-71
2022/09/01 10:04:56;;;;;;;;;;;;;;;24.49;44.69;101843.06;5280935;28;20408;-72
2022/09/01 10:07:34;;;;;;;;;;;;;;;24.56;45.04;101841.81;5282773;28;20003;-72
2022/09/01 10:10:23;;;;;;;;;;;;;;;24.71;44.15;101829.47;5282864;28;19999;-71
2022/09/01 10:12:55;;;;;;;;;;;;;;;24.85;44.87;101828.66;5282593;28;19920;-71
2022/09/01 10:15:31;;;;;;;;;;;;;;;24.98;40.45;101834.16;5281171;28;20268;-72
2022/09/01 10:18:13;;;;;;;;;;;;;;;25.13;39.60;101827.06;5281945;28;19913;-71
2022/09/01 10:20:47;;;;;;;;;;;;;;;25.37;38.64;101827.47;5282941;28;19920;-71
2022/09/01 10:23:19;;;;;;;;;;;;;;;25.53;37.46;101822.09;5282610;28;19961;-71
2022/09/01 10:25:51;;;;;;;;;;;;;;;25.61;38.37;101818.97;5283010;28;19916;-70
2022/09/01 10:28:23;;;;;;;;;;;;;;;25.72;38.26;101826.34;5280652;28;20297;-71
2022/09/01 10:30:55;;;;;;;;;;;;;;;25.87;38.86;101824.56;5264731;28;19912;-71
2022/09/01 10:33:26;;;;;;;;;;;;;;;26.11;39.72;101827.56;5282884;28;20015;-71
2022/09/01 10:35:57;;;;;;;;;;;;;;;26.27;38.74;101828.31;5282259;28;19912;-72
2022/09/01 10:38:29;;;;;;;;;;;;;;;26.53;34.29;101828.47;5282298;28;19912;-71
2022/09/01 10:41:06;;;;;;;;;;;;;;;26.77;35.95;101828.75;5280975;28;20251;-71
2022/09/01 10:43:39;;;;;;;;;;;;;;;27.26;37.51;101828.19;5265633;28;19932;-71
2022/09/01 10:46:19;;;;;;;;;;;;;;;27.45;32.15;101829.63;5282560;28;20315;-70
2022/09/01 10:48:51;;;;;;;;;;;;;;;27.67;35.84;101831.72;5270868;28;19916;-72
2022/09/01 10:51:23;;;;;;;;;;;;;;;27.83;36.17;101828.84;5261657;28;19912;-71
2022/09/01 10:53:56;;;;;;;;;;;;;;;27.92;34.68;101816.59;5261387;28;20004;-72
2022/09/01 10:56:39;;;;;;;;;;;;;;;28.04;35.18;101813.09;5262567;28;19932;-72
2022/09/01 10:59:27;;;;;;;;;;;;;;;28.24;36.75;101817.06;5266465;28;19917;-71
2022/09/01 11:02:04;;;;;;;;;;;;;;;28.36;36.34;101818.00;5265495;28;19916;-72
2022/09/01 11:04:35;;;;;;;;;;;;;;;28.51;35.12;101818.69;5265397;28;19912;-71
2022/09/01 11:07:25;;;;;;;;;;;;;;;28.78;30.66;101809.63;5265450;28;19913;-71
2022/09/01 11:10:15;;;;;;;;;;;;;;;29.08;27.46;101818.09;5265516;28;19913;-70
2022/09/01 11:12:57;;;;;;;;;;;;;;;29.44;31.44;101812.75;5282669;28;20365;-71
2022/09/01 11:15:34;;;;;;;;;;;;;;;29.49;32.65;101804.34;5285747;28;19912;-70
2022/09/01 11:18:25;;;;;;;;;;;;;;;30.46;29.40;101818.25;5286048;28;19912;-72
2022/09/01 11:21:13;;;;;;;;;;;;;;;31.24;30.09;101814.47;5285836;28;19955;-71
2022/09/01 11:23:45;;;;;;;;;;;;;;;31.72;28.01;101807.72;5284026;28;19960;-72
2022/09/01 11:26:32;;;;;;;;;;;;;;;31.61;28.08;101805.13;5285869;28;19966;-71
2022/09/01 11:29:03;;;;;;;;;;;;;;;31.44;28.81;101807.41;5285471;28;19920;-71
2022/09/01 11:31:40;;;;;;;;;;;;;;;31.51;30.50;101801.44;5286039;28;20292;-72
2022/09/01 11:34:14;;;;;;;;;;;;;;;31.58;24.98;101784.66;5285517;28;19913;-72
2022/09/01 11:36:53;;;;;;;;;;;;;;;31.03;29.26;101792.06;5283418;28;19932;-71
2022/09/01 11:39:32;;;;;;;;;;;;;;;30.91;28.26;101796.59;5267549;28;19919;-71
2022/09/01 11:42:09;;;;;;;;;;;;;;;30.46;28.70;101786.84;5285561;28;20305;-72
2022/09/01 11:44:56;;;;;;;;;;;;;;;30.51;31.05;101797.19;5285701;28;19913;-72
2022/09/01 11:47:39;;;;;;;;;;;;;;;30.78;30.50;101769.84;5284956;28;20269;-72
2022/09/01 11:50:21;;;;;;;;;;;;;;;31.11;31.19;101783.31;5283776;28;20014;-71
2022/09/01 11:52:55;;;;;;;;;;;;;;;31.47;31.13;101779.31;5285098;28;20318;-71
2022/09/01 11:55:27;;;;;;;;;;;;;;;31.81;25.47;101777.28;5283069;28;19970;-72
2022/09/01 11:57:59;;;;;;;;;;;;;;;32.11;30.19;101774.72;5284859;28;19931;-72
2022/09/01 12:00:32;;;;;;;;;;;;;;;32.55;29.29;101775.25;5284069;28;20353;-72
2022/09/01 12:03:18;;;;;;;;;;;;;;;32.68;24.84;101764.22;5284559;28;20387;-71
2022/09/01 12:05:58;;;;;;;;;;;;;;;32.82;25.59;101760.25;5285473;28;20353;-71
2022/09/01 12:08:32;;;;;;;;;;;;;;;32.78;25.00;101756.97;5284654;28;20022;-72
2022/09/01 12:11:06;;;;;;;;;;;;;;;32.98;25.52;101757.81;5285148;28;19970;-72
2022/09/01 12:13:39;;;;;;;;;;;;;;;33.08;24.43;101760.50;5283056;28;19916;-72
2022/09/01 12:16:19;;;;;;;;;;;;;;;32.99;26.84;101769.47;5284418;28;20349;-71
2022/09/01 12:18:52;;;;;;;;;;;;;;;33.01;21.14;101752.13;5284568;28;20320;-72
2022/09/01 12:21:31;;;;;;;;;;;;;;;32.92;26.41;101749.44;5284799;28;20012;-71
2022/09/01 12:24:31;;;;;;;;;;;;;;;33.03;26.42;101755.53;5284493;28;19962;-71
2022/09/01 12:27:03;;;;;;;;;;;;;;;32.99;25.46;101748.72;5260433;28;19916;-71
2022/09/01 12:29:36;;;;;;;;;;;;;;;33.20;26.52;101745.00;5284707;28;19967;-72
2022/09/01 12:32:07;;;;;;;;;;;;;;;33.44;25.78;101747.22;5284508;28;20298;-72
2022/09/01 12:34:41;;;;;;;;;;;;;;;33.16;20.58;101743.59;5284582;28;20018;-71
2022/09/01 12:37:13;;;;;;;;;;;;;;;32.77;22.13;101751.72;5266536;28;19916;-71
2022/09/01 12:39:46;;;;;;;;;;;;;;;33.08;25.44;101757.81;5282679;28;19916;-71
2022/09/01 12:42:18;;;;;;;;;;;;;;;33.34;25.31;101741.84;5284768;28;19962;-72
2022/09/01 12:44:57;;;;;;;;;;;;;;;33.60;25.10;101741.22;5284305;28;19920;-73
2022/09/01 12:47:46;;;;;;;;;;;;;;;33.94;24.65;101746.06;5283786;28;19912;-72
2022/09/01 12:50:17;;;;;;;;;;;;;;;34.13;20.55;101748.69;5282643;28;20249;-72
2022/09/01 12:52:50;;;;;;;;;;;;;;;34.14;24.24;101749.53;5283552;28;19921;-71
2022/09/01 12:55:29;;;;;;;;;;;;;;;34.21;24.22;101736.25;5284062;28;20245;-71
2022/09/01 12:58:02;;;;;;;;;;;;;;;34.41;22.18;101735.16;5283973;28;19966;-72
2022/09/01 13:00:35;;;;;;;;;;;;;;;34.60;23.69;101744.13;5283906;28;20026;-72
2022/09/01 13:03:12;;;;;;;;;;;;;;;34.83;23.06;101729.13;5281986;28;19916;-72
2022/09/01 13:05:45;;;;;;;;;;;;;;;35.00;22.21;101734.69;5283857;28;19913;-71
2022/09/01 13:08:21;;;;;;;;;;;;;;;35.04;22.61;101728.78;5283737;28;19916;-70